Time;durP1;ratioP1;P1;durP2;ratioP2;P2;SDS_P1;SDS_P2;PMS_P1;PMS_P2;Temp;Humidity;BMP_temperature;BMP_pressure;BME280_temperature;BME280_humidity;BME280_pressure;Samples;Min_cycle;Max_cycle;Signal;HPM_P1;HPM_P2
2021/10/17 00:01:23;;;;;;;15.73;10.02;;;10.40;99.90;;;;;;5072302;28;20058;-76
2021/10/17 00:03:48;;;;;;;13.48;7.90;;;10.40;99.90;;;;;;5059240;28;20029;-75
2021/10/17 00:06:16;;;;;;;16.02;7.70;;;10.40;99.90;;;;;;5070505;28;20021;-75
2021/10/17 00:08:41;;;;;;;9.25;6.85;;;10.80;99.90;;;;;;5072422;28;20052;-74
2021/10/17 00:11:07;;;;;;;14.10;6.55;;;10.30;99.90;;;;;;5072196;28;20051;-75
2021/10/17 00:13:33;;;;;;;17.70;6.90;;;10.40;99.90;;;;;;5071683;28;20037;-75
2021/10/17 00:15:58;;;;;;;11.43;7.32;;;10.30;99.90;;;;;;5071635;28;20086;-76
2021/10/17 00:18:24;;;;;;;12.18;6.93;;;10.40;99.90;;;;;;5071116;28;20116;-75
2021/10/17 00:20:50;;;;;;;11.50;7.15;;;10.30;99.90;;;;;;5067747;28;20116;-75
2021/10/17 00:23:15;;;;;;;11.70;7.10;;;10.30;99.90;;;;;;5072151;28;20048;-75
2021/10/17 00:25:41;;;;;;;14.48;7.15;;;10.30;99.90;;;;;;5071230;28;20012;-76
2021/10/17 00:28:06;;;;;;;16.52;7.40;;;10.20;99.90;;;;;;5071942;28;20054;-76
2021/10/17 00:30:32;;;;;;;13.73;7.13;;;10.20;99.90;;;;;;5071723;28;20028;-76
2021/10/17 00:32:58;;;;;;;11.13;6.78;;;10.20;99.90;;;;;;5070876;28;20029;-75
2021/10/17 00:35:24;;;;;;;13.98;7.60;;;10.20;99.90;;;;;;5071794;28;20012;-76
2021/10/17 00:37:49;;;;;;;16.90;8.52;;;10.20;99.90;;;;;;5073442;28;20108;-75
2021/10/17 00:40:18;;;;;;;13.35;6.90;;;10.20;99.90;;;;;;5071027;28;20028;-75
2021/10/17 00:42:45;;;;;;;14.63;7.13;;;10.20;99.90;;;;;;5074830;28;20082;-75
2021/10/17 00:45:14;;;;;;;15.07;7.07;;;10.20;99.90;;;;;;5076118;28;20025;-74
2021/10/17 00:47:40;;;;;;;21.40;6.75;;;10.20;99.90;;;;;;5066654;28;20506;-76
2021/10/17 00:50:07;;;;;;;21.33;8.73;;;10.10;99.90;;;;;;5066492;28;20032;-75
2021/10/17 00:52:34;;;;;;;10.13;6.60;;;10.10;99.90;;;;;;5075102;28;20439;-77
2021/10/17 00:54:59;;;;;;;14.25;6.88;;;10.10;99.90;;;;;;5074597;28;20103;-74
2021/10/17 00:57:25;;;;;;;23.42;9.48;;;10.10;99.90;;;;;;5070661;28;20044;-75
2021/10/17 00:59:50;;;;;;;14.27;7.75;;;10.10;99.90;;;;;;5065904;28;20024;-75
2021/10/17 01:02:16;;;;;;;14.98;7.65;;;10.10;99.90;;;;;;5061763;28;20671;-74
2021/10/17 01:04:42;;;;;;;19.90;8.85;;;10.10;99.90;;;;;;5075072;28;20074;-74
2021/10/17 01:07:09;;;;;;;12.25;6.68;;;10.10;99.90;;;;;;5060813;28;20025;-74
2021/10/17 01:09:36;;;;;;;10.35;6.18;;;10.10;99.90;;;;;;5074439;28;20377;-74
2021/10/17 01:12:03;;;;;;;13.90;6.82;;;10.10;99.90;;;;;;5074895;28;20033;-75
2021/10/17 01:14:29;;;;;;;18.52;7.18;;;10.10;99.90;;;;;;5075834;28;20025;-75
2021/10/17 01:16:54;;;;;;;8.85;6.13;;;10.10;99.90;;;;;;5074479;28;20033;-75
2021/10/17 01:19:24;;;;;;;11.30;7.03;;;10.10;99.90;;;;;;5075244;28;20021;-75
2021/10/17 01:21:50;;;;;;;9.65;7.35;;;10.10;99.90;;;;;;5073499;28;20017;-75
2021/10/17 01:24:17;;;;;;;9.10;6.45;;;10.10;99.90;;;;;;5074567;28;20509;-73
2021/10/17 01:26:43;;;;;;;21.88;7.35;;;10.20;99.90;;;;;;5074569;28;20025;-75
2021/10/17 01:29:09;;;;;;;15.00;7.40;;;10.10;99.90;;;;;;5074116;28;20029;-75
2021/10/17 01:31:46;;;;;;;14.57;6.97;;;10.10;99.90;;;;;;5074593;28;20024;-76
2021/10/17 01:34:12;;;;;;;13.30;7.20;;;10.10;99.90;;;;;;5074908;28;20020;-75
2021/10/17 01:36:38;;;;;;;10.38;7.25;;;10.10;99.90;;;;;;5074736;28;20016;-75
2021/10/17 01:39:09;;;;;;;18.02;7.63;;;10.10;99.90;;;;;;5074916;28;20024;-76
2021/10/17 01:41:35;;;;;;;11.10;6.93;;;10.10;99.90;;;;;;5061085;28;20094;-75
2021/10/17 01:44:23;;;;;;;14.63;7.60;;;10.10;99.90;;;;;;5064279;28;20095;-75
2021/10/17 01:46:49;;;;;;;14.85;7.03;;;10.10;99.90;;;;;;5058742;28;20025;-75
2021/10/17 01:49:14;;;;;;;11.48;7.22;;;10.10;99.90;;;;;;5074823;28;20021;-75
2021/10/17 01:51:40;;;;;;;17.70;8.43;;;10.10;99.90;;;;;;5073094;28;20032;-77
2021/10/17 01:54:06;;;;;;;14.70;7.32;;;10.10;99.90;;;;;;5074379;28;20086;-76
2021/10/17 01:56:33;;;;;;;12.30;7.05;;;10.10;99.90;;;;;;5074765;28;20040;-75
2021/10/17 01:58:58;;;;;;;12.88;6.80;;;10.10;99.90;;;;;;5073615;28;20029;-76
2021/10/17 02:01:26;;;;;;;11.85;6.82;;;10.10;99.90;;;;;;5074211;28;20358;-77
2021/10/17 02:03:51;;;;;;;16.15;7.82;;;10.10;99.90;;;;;;5072968;28;20484;-74
2021/10/17 02:06:17;;;;;;;12.60;8.30;;;10.10;99.90;;;;;;5074081;28;20035;-76
2021/10/17 02:08:43;;;;;;;14.05;7.50;;;10.70;99.90;;;;;;5073371;28;20024;-75
2021/10/17 02:11:08;;;;;;;14.60;7.70;;;10.10;99.90;;;;;;5072967;28;20028;-76
2021/10/17 02:13:34;;;;;;;14.00;7.13;;;10.10;99.90;;;;;;5074075;28;20472;-76
2021/10/17 02:15:59;;;;;;;15.30;7.88;;;9.40;99.90;;;;;;5053438;28;20024;-75
2021/10/17 02:18:25;;;;;;;18.50;7.78;;;10.10;99.90;;;;;;5065171;28;20052;-75
2021/10/17 02:20:50;;;;;;;15.35;7.55;;;10.10;99.90;;;;;;5073716;28;20039;-73
2021/10/17 02:23:17;;;;;;;17.23;7.88;;;10.20;99.90;;;;;;5073697;28;20033;-75
2021/10/17 02:25:43;;;;;;;13.98;7.80;;;10.10;99.90;;;;;;5073068;28;20115;-75
2021/10/17 02:28:08;;;;;;;15.02;7.70;;;10.20;99.90;;;;;;5073780;28;20063;-76
2021/10/17 02:30:34;;;;;;;15.85;7.07;;;10.10;99.90;;;;;;5060333;28;20045;-75
2021/10/17 02:32:59;;;;;;;11.48;7.28;;;10.20;99.90;;;;;;5072259;28;20492;-75
2021/10/17 02:35:25;;;;;;;13.80;7.40;;;10.20;99.90;;;;;;5073874;28;20070;-75
2021/10/17 02:37:51;;;;;;;20.63;9.85;;;10.10;99.90;;;;;;5073444;28;20074;-76
2021/10/17 02:40:19;;;;;;;15.57;7.50;;;10.20;99.90;;;;;;5072914;28;20112;-76
2021/10/17 02:42:45;;;;;;;15.55;7.47;;;10.20;99.90;;;;;;5073069;28;20048;-75
2021/10/17 02:45:10;;;;;;;13.77;7.70;;;10.10;99.90;;;;;;5073364;28;20376;-76
2021/10/17 02:47:36;;;;;;;22.83;7.85;;;10.20;99.90;;;;;;5058767;28;20103;-76
2021/10/17 02:50:02;;;;;;;15.65;7.15;;;10.20;99.90;;;;;;5053213;28;20465;-76
2021/10/17 02:52:28;;;;;;;16.75;6.97;;;10.10;99.90;;;;;;5065425;28;20590;-75
2021/10/17 02:54:53;;;;;;;14.57;7.18;;;10.20;99.90;;;;;;5072432;28;20087;-75
2021/10/17 02:57:19;;;;;;;20.27;8.45;;;10.20;99.90;;;;;;5073665;28;20472;-74
2021/10/17 02:59:46;;;;;;;16.25;7.63;;;10.20;99.90;;;;;;5072858;28;20080;-75
2021/10/17 03:02:12;;;;;;;21.85;7.70;;;10.20;99.90;;;;;;5072472;28;20530;-75
2021/10/17 03:04:38;;;;;;;19.00;7.80;;;10.20;99.90;;;;;;5072083;28;20060;-75
2021/10/17 03:07:03;;;;;;;13.05;7.85;;;10.20;99.90;;;;;;5072112;28;20032;-76
2021/10/17 03:09:29;;;;;;;13.65;7.38;;;10.10;99.90;;;;;;5073187;28;20024;-75
2021/10/17 03:11:54;;;;;;;17.88;7.60;;;10.20;99.90;;;;;;5072689;28;20021;-76
2021/10/17 03:14:20;;;;;;;20.63;8.20;;;10.20;99.90;;;;;;5072217;28;20032;-75
2021/10/17 03:16:46;;;;;;;16.00;7.88;;;10.20;99.90;;;;;;5073053;28;20020;-74
2021/10/17 03:19:14;;;;;;;12.25;7.35;;;10.10;99.90;;;;;;5072965;28;20043;-76
2021/10/17 03:21:41;;;;;;;15.50;7.68;;;10.20;99.90;;;;;;5072356;28;20017;-75
2021/10/17 03:24:07;;;;;;;16.40;7.50;;;10.20;99.90;;;;;;5072909;28;20094;-74
2021/10/17 03:26:32;;;;;;;12.95;7.53;;;10.20;99.90;;;;;;5065505;28;20017;-75
2021/10/17 03:28:58;;;;;;;19.40;8.05;;;10.20;99.90;;;;;;5067607;28;20032;-77
2021/10/17 03:31:23;;;;;;;11.98;7.45;;;10.10;99.90;;;;;;5066168;28;20029;-75
2021/10/17 03:33:49;;;;;;;16.30;8.70;;;10.20;99.90;;;;;;5065132;28;20025;-76
2021/10/17 03:36:15;;;;;;;19.95;7.70;;;10.10;99.90;;;;;;5071606;28;20149;-76
2021/10/17 03:38:43;;;;;;;17.80;8.05;;;10.10;99.90;;;;;;5074597;28;20032;-75
2021/10/17 03:41:11;;;;;;;10.73;7.13;;;10.10;99.90;;;;;;5072167;28;20442;-76
2021/10/17 03:43:37;;;;;;;13.65;7.63;;;10.10;99.90;;;;;;5071798;28;20036;-75
2021/10/17 03:46:02;;;;;;;16.08;9.43;;;10.10;99.90;;;;;;5071812;28;20027;-76
2021/10/17 03:48:28;;;;;;;10.50;7.03;;;10.10;99.90;;;;;;5072321;28;20111;-75
2021/10/17 03:50:53;;;;;;;15.63;8.38;;;10.20;99.90;;;;;;5071252;28;20021;-75
2021/10/17 03:53:19;;;;;;;12.38;7.32;;;10.10;99.90;;;;;;5067004;28;20032;-76
2021/10/17 03:55:45;;;;;;;13.20;7.90;;;10.10;99.90;;;;;;5063125;28;20016;-75
2021/10/17 03:58:10;;;;;;;14.50;8.88;;;10.20;99.90;;;;;;5071979;28;20025;-75
2021/10/17 04:00:36;;;;;;;12.38;8.35;;;10.20;99.90;;;;;;5072119;28;20017;-76
2021/10/17 04:03:01;;;;;;;21.00;9.13;;;10.10;99.90;;;;;;5071932;28;20037;-75
2021/10/17 04:05:27;;;;;;;14.52;8.02;;;10.10;99.90;;;;;;5071800;28;20028;-76
2021/10/17 04:07:53;;;;;;;12.98;7.00;;;10.10;99.90;;;;;;5071738;28;20036;-75
2021/10/17 04:10:18;;;;;;;15.07;7.40;;;10.10;99.90;;;;;;5072103;28;20545;-76
2021/10/17 04:12:44;;;;;;;12.57;7.25;;;10.10;99.90;;;;;;5071194;28;20020;-75
2021/10/17 04:15:12;;;;;;;16.27;7.93;;;10.10;99.90;;;;;;5073049;28;20023;-76
2021/10/17 04:17:38;;;;;;;16.85;7.70;;;10.10;99.90;;;;;;5075080;28;20369;-77
2021/10/17 04:20:04;;;;;;;17.15;7.35;;;10.10;99.90;;;;;;5075929;28;20054;-76
2021/10/17 04:22:30;;;;;;;13.75;8.10;;;10.10;99.90;;;;;;5075780;28;20070;-76
2021/10/17 04:24:55;;;;;;;17.70;7.90;;;10.10;99.90;;;;;;5074899;28;20029;-76
2021/10/17 04:27:21;;;;;;;7.88;7.07;;;10.10;99.90;;;;;;5076122;28;20111;-76
2021/10/17 04:29:47;;;;;;;15.70;8.20;;;10.10;99.90;;;;;;5076077;28;20021;-74
2021/10/17 04:32:12;;;;;;;17.17;8.32;;;10.00;99.90;;;;;;5075433;28;20526;-75
2021/10/17 04:34:38;;;;;;;12.98;7.40;;;10.00;99.90;;;;;;5075703;28;20410;-77
2021/10/17 04:37:06;;;;;;;15.82;8.85;;;10.00;99.90;;;;;;5075534;28;20115;-76
2021/10/17 04:39:33;;;;;;;18.80;7.63;;;10.00;99.90;;;;;;5075114;28;20019;-76
2021/10/17 04:42:00;;;;;;;11.43;7.22;;;10.00;99.90;;;;;;5075259;28;20048;-76
2021/10/17 04:44:25;;;;;;;17.35;8.10;;;10.00;99.90;;;;;;5063209;28;20484;-75
2021/10/17 04:46:51;;;;;;;11.68;7.82;;;10.00;99.90;;;;;;5074912;28;20287;-75
2021/10/17 04:49:16;;;;;;;15.45;7.53;;;10.00;99.90;;;;;;5076061;28;20059;-76
2021/10/17 04:51:42;;;;;;;12.48;7.78;;;10.00;99.90;;;;;;5075730;28;20016;-75
2021/10/17 04:54:07;;;;;;;12.00;7.38;;;10.00;99.90;;;;;;5075268;28;20028;-75
2021/10/17 04:56:33;;;;;;;16.65;7.68;;;10.00;99.90;;;;;;5075986;28;20028;-75
2021/10/17 04:58:59;;;;;;;11.95;7.18;;;10.10;99.90;;;;;;5074939;28;20400;-74
2021/10/17 05:01:26;;;;;;;11.18;7.05;;;10.00;99.90;;;;;;5063357;28;20381;-75
2021/10/17 05:03:52;;;;;;;10.38;7.05;;;10.00;99.90;;;;;;5059114;28;20043;-75
2021/10/17 05:06:18;;;;;;;14.70;7.03;;;10.00;99.90;;;;;;5075493;28;20380;-76
2021/10/17 05:08:43;;;;;;;16.25;7.53;;;10.00;99.90;;;;;;5074643;28;20044;-76
2021/10/17 05:11:09;;;;;;;14.93;6.35;;;10.00;99.90;;;;;;5075333;28;20031;-76
2021/10/17 05:13:35;;;;;;;11.75;7.22;;;10.00;99.90;;;;;;5061351;28;20035;-76
2021/10/17 05:16:00;;;;;;;17.27;7.57;;;10.00;99.90;;;;;;5054608;28;20025;-77
2021/10/17 05:18:26;;;;;;;16.15;7.55;;;10.00;99.90;;;;;;5067222;28;20422;-76
2021/10/17 05:20:51;;;;;;;13.48;7.30;;;10.00;99.90;;;;;;5073595;28;20013;-76
2021/10/17 05:23:17;;;;;;;12.82;7.78;;;10.00;99.90;;;;;;5078822;28;20056;-75
2021/10/17 05:25:43;;;;;;;15.23;8.23;;;10.00;99.90;;;;;;5075237;28;20033;-76
2021/10/17 05:28:09;;;;;;;14.60;7.50;;;10.00;99.90;;;;;;5073269;28;20039;-75
2021/10/17 05:30:35;;;;;;;13.38;7.80;;;10.00;99.90;;;;;;5075291;28;20016;-76
2021/10/17 05:33:02;;;;;;;17.02;7.50;;;10.10;99.90;;;;;;5074936;28;20188;-76
2021/10/17 05:35:28;;;;;;;15.82;7.95;;;10.00;99.90;;;;;;5074622;28;20084;-76
2021/10/17 05:37:54;;;;;;;13.18;7.18;;;10.00;99.90;;;;;;5074449;28;20060;-75
2021/10/17 05:40:19;;;;;;;15.05;7.68;;;10.00;99.90;;;;;;5075396;28;20031;-75
2021/10/17 05:42:45;;;;;;;10.88;7.50;;;10.00;99.90;;;;;;5070906;28;20083;-75
2021/10/17 05:45:11;;;;;;;16.23;8.45;;;10.00;99.90;;;;;;5062484;28;20052;-76
2021/10/17 05:47:36;;;;;;;13.20;8.27;;;10.10;99.90;;;;;;5074147;28;20024;-75
2021/10/17 05:50:03;;;;;;;14.70;8.23;;;10.00;99.90;;;;;;5073561;28;20025;-77
2021/10/17 05:52:28;;;;;;;16.25;8.27;;;10.00;99.90;;;;;;5077003;28;20024;-74
2021/10/17 05:54:54;;;;;;;14.82;7.47;;;10.10;99.90;;;;;;5074195;28;20016;-76
2021/10/17 05:57:19;;;;;;;21.80;7.97;;;11.00;99.90;;;;;;5073682;28;20490;-75
2021/10/17 05:59:45;;;;;;;16.08;8.10;;;10.00;99.90;;;;;;5073854;28;20032;-77
2021/10/17 06:02:11;;;;;;;12.88;7.90;;;10.00;99.90;;;;;;5059688;28;20361;-76
2021/10/17 06:04:36;;;;;;;13.32;8.18;;;10.00;99.90;;;;;;5075049;28;20028;-75
2021/10/17 06:07:03;;;;;;;11.80;7.75;;;10.10;99.90;;;;;;5073981;28;20048;-76
2021/10/17 06:09:33;;;;;;;11.70;8.10;;;10.00;99.90;;;;;;5074124;28;20020;-75
2021/10/17 06:11:59;;;;;;;20.90;8.45;;;10.00;99.90;;;;;;5058073;28;20036;-75
2021/10/17 06:14:25;;;;;;;11.45;8.30;;;10.00;99.90;;;;;;5060851;28;20384;-76
2021/10/17 06:16:50;;;;;;;10.13;7.50;;;10.00;99.90;;;;;;5060357;28;20496;-74
2021/10/17 06:19:16;;;;;;;13.07;7.82;;;10.10;99.90;;;;;;5072294;28;20439;-77
2021/10/17 06:21:41;;;;;;;17.48;7.75;;;10.30;99.90;;;;;;5074040;28;20103;-75
2021/10/17 06:24:07;;;;;;;12.20;8.00;;;10.10;99.90;;;;;;5073246;28;20669;-75
2021/10/17 06:26:32;;;;;;;19.25;8.77;;;10.10;99.90;;;;;;5074590;28;20017;-74
2021/10/17 06:28:58;;;;;;;11.38;7.57;;;10.10;99.90;;;;;;5074522;28;20050;-76
2021/10/17 06:31:24;;;;;;;16.77;8.15;;;10.10;99.90;;;;;;5067360;28;20021;-76
2021/10/17 06:33:49;;;;;;;18.80;8.57;;;10.10;99.90;;;;;;5066233;28;20028;-73
2021/10/17 06:36:15;;;;;;;19.13;8.77;;;10.20;99.90;;;;;;5073983;28;20107;-76
2021/10/17 06:38:40;;;;;;;20.88;8.85;;;10.20;99.90;;;;;;5073049;28;20067;-75
2021/10/17 06:41:06;;;;;;;18.23;7.78;;;10.20;99.90;;;;;;5073490;28;20024;-76
2021/10/17 06:43:31;;;;;;;19.08;8.02;;;10.20;99.90;;;;;;5074060;28;20465;-76
2021/10/17 06:45:57;;;;;;;16.48;8.85;;;10.20;99.90;;;;;;5070676;28;20376;-76
2021/10/17 06:48:22;;;;;;;14.55;7.47;;;10.30;99.90;;;;;;5071831;28;20036;-75
2021/10/17 06:50:48;;;;;;;14.25;7.38;;;10.40;99.90;;;;;;5071017;28;20020;-77
2021/10/17 06:53:13;;;;;;;20.88;8.45;;;10.40;99.90;;;;;;5069923;28;20029;-76
2021/10/17 06:55:39;;;;;;;16.30;8.20;;;10.40;99.90;;;;;;5071121;28;20021;-78
2021/10/17 06:58:05;;;;;;;13.90;7.93;;;10.50;99.90;;;;;;5070973;28;20158;-77
2021/10/17 07:00:30;;;;;;;14.15;7.95;;;10.60;99.90;;;;;;5071322;28;20028;-77
2021/10/17 07:02:56;;;;;;;13.18;7.70;;;10.70;99.90;;;;;;5071034;28;20036;-75
2021/10/17 07:05:21;;;;;;;13.35;7.65;;;10.60;99.90;;;;;;5072133;28;20097;-76
2021/10/17 07:07:47;;;;;;;14.90;8.35;;;10.60;99.90;;;;;;5070619;28;20422;-75
2021/10/17 07:10:12;;;;;;;18.67;8.18;;;10.70;99.90;;;;;;5071980;28;20013;-75
2021/10/17 07:12:38;;;;;;;14.40;8.00;;;10.70;99.90;;;;;;5071783;28;20029;-76
2021/10/17 07:15:04;;;;;;;13.77;7.97;;;10.70;99.90;;;;;;5070177;28;20032;-76
2021/10/17 07:17:29;;;;;;;16.52;7.57;;;10.70;99.90;;;;;;5071725;28;20070;-77
2021/10/17 07:19:55;;;;;;;15.15;8.10;;;10.60;99.90;;;;;;5070918;28;20012;-76
2021/10/17 07:22:20;;;;;;;19.23;8.88;;;10.70;99.90;;;;;;5064162;28;20112;-76
2021/10/17 07:24:46;;;;;;;15.05;8.20;;;10.70;99.90;;;;;;5064826;28;20017;-76
2021/10/17 07:27:12;;;;;;;13.07;8.02;;;10.70;99.90;;;;;;5062994;28;20016;-77
2021/10/17 07:29:37;;;;;;;16.38;8.88;;;10.70;99.90;;;;;;5066095;28;20029;-76
2021/10/17 07:32:03;;;;;;;16.77;8.88;;;10.70;99.90;;;;;;5067271;28;20021;-76
2021/10/17 07:34:29;;;;;;;12.30;8.00;;;10.50;99.90;;;;;;5062149;28;20044;-77
2021/10/17 07:36:54;;;;;;;15.50;7.57;;;10.70;99.90;;;;;;5062293;28;20025;-76
2021/10/17 07:39:20;;;;;;;17.40;8.77;;;10.70;99.90;;;;;;5062903;28;20023;-75
2021/10/17 07:41:48;;;;;;;18.27;8.55;;;10.80;99.90;;;;;;5066382;28;20051;-76
2021/10/17 07:44:15;;;;;;;16.45;9.05;;;10.80;99.90;;;;;;5064066;28;20028;-76
2021/10/17 07:46:40;;;;;;;17.17;7.90;;;10.80;99.90;;;;;;5066733;28;20032;-77
2021/10/17 07:49:06;;;;;;;19.90;8.80;;;10.80;99.90;;;;;;5064810;28;20025;-76
2021/10/17 07:51:34;;;;;;;18.25;8.75;;;10.80;99.90;;;;;;5065297;28;20013;-76
2021/10/17 07:54:00;;;;;;;17.67;8.68;;;10.80;99.90;;;;;;5065621;28;20086;-77
2021/10/17 07:56:25;;;;;;;15.90;8.35;;;10.80;99.90;;;;;;5069399;28;20506;-76
2021/10/17 07:58:52;;;;;;;19.85;8.50;;;10.80;99.90;;;;;;5070621;28;20396;-77
2021/10/17 08:01:19;;;;;;;19.00;8.82;;;10.90;99.90;;;;;;5072391;28;20024;-76
2021/10/17 08:03:44;;;;;;;15.38;8.73;;;10.90;99.90;;;;;;5071486;28;20044;-77
2021/10/17 08:06:10;;;;;;;18.33;9.15;;;11.00;99.90;;;;;;5072656;28;20020;-76
2021/10/17 08:08:35;;;;;;;19.45;8.95;;;11.00;99.90;;;;;;5069747;28;20024;-77
2021/10/17 08:11:02;;;;;;;14.13;8.95;;;11.00;99.90;;;;;;5070665;28;20064;-76
2021/10/17 08:13:28;;;;;;;16.63;10.32;;;11.10;99.90;;;;;;5062485;28;20024;-77
2021/10/17 08:15:54;;;;;;;20.38;9.60;;;11.10;99.90;;;;;;5070691;28;20048;-77
2021/10/17 08:18:21;;;;;;;20.83;9.73;;;11.10;99.90;;;;;;5074447;28;20032;-77
2021/10/17 08:20:47;;;;;;;16.63;8.70;;;11.10;99.90;;;;;;5072382;28;20025;-75
2021/10/17 08:23:12;;;;;;;16.35;9.63;;;11.20;99.90;;;;;;5072366;28;20043;-77
2021/10/17 08:25:38;;;;;;;13.90;8.88;;;11.30;99.90;;;;;;5071628;28;20021;-77
2021/10/17 08:28:04;;;;;;;16.98;9.32;;;11.30;99.90;;;;;;5071662;28;20063;-76
2021/10/17 08:30:29;;;;;;;16.98;8.93;;;11.40;99.90;;;;;;5073948;28;20024;-76
2021/10/17 08:32:55;;;;;;;17.92;10.38;;;12.40;99.90;;;;;;5071528;28;20097;-75
2021/10/17 08:35:21;;;;;;;18.15;9.52;;;11.60;99.90;;;;;;5072136;28;20369;-76
2021/10/17 08:37:46;;;;;;;14.65;9.07;;;11.80;99.90;;;;;;5071105;28;20020;-76
2021/10/17 08:40:13;;;;;;;13.63;8.68;;;11.90;99.90;;;;;;5071997;28;20025;-76
2021/10/17 08:42:39;;;;;;;19.75;10.05;;;12.00;99.90;;;;;;5064088;28;20045;-76
2021/10/17 08:45:05;;;;;;;11.73;8.68;;;12.00;99.90;;;;;;5071404;28;20028;-73
2021/10/17 08:47:33;;;;;;;16.83;9.80;;;12.20;99.90;;;;;;5072113;28;20082;-76
2021/10/17 08:49:59;;;;;;;20.55;9.32;;;12.20;99.90;;;;;;5058057;28;20028;-77
2021/10/17 08:52:25;;;;;;;14.65;8.70;;;12.30;99.90;;;;;;5072258;28;20056;-76
2021/10/17 08:54:51;;;;;;;15.70;8.65;;;12.40;99.90;;;;;;5072306;28;20024;-76
2021/10/17 08:57:17;;;;;;;12.98;8.65;;;12.40;99.90;;;;;;5072000;28;20029;-75
2021/10/17 08:59:47;;;;;;;21.83;9.88;;;12.50;99.90;;;;;;5070847;28;20027;-76
2021/10/17 09:02:18;;;;;;;15.40;8.73;;;12.60;99.90;;;;;;5072858;28;20025;-76
2021/10/17 09:04:58;;;;;;;20.20;9.63;;;12.70;99.90;;;;;;5073562;28;20033;-76
2021/10/17 09:07:24;;;;;;;17.50;8.67;;;12.80;99.90;;;;;;5073515;28;20025;-76
2021/10/17 09:10:06;;;;;;;22.65;9.45;;;12.90;99.90;;;;;;5069998;28;20801;-76
2021/10/17 09:12:33;;;;;;;16.83;9.68;;;13.00;99.90;;;;;;5071034;28;20066;-76
2021/10/17 09:15:30;;;;;;;21.35;8.60;;;13.00;99.90;;;;;;5064171;28;20066;-75
2021/10/17 09:18:06;;;;;;;15.63;9.07;;;13.10;99.90;;;;;;5070120;28;20066;-75
2021/10/17 09:20:32;;;;;;;18.30;9.80;;;13.30;99.90;;;;;;5065061;28;20492;-74
2021/10/17 09:23:00;;;;;;;16.77;8.90;;;13.10;99.90;;;;;;5064544;28;20037;-77
2021/10/17 09:25:34;;;;;;;12.23;8.93;;;13.10;99.90;;;;;;5059452;28;20045;-78
2021/10/17 09:28:00;;;;;;;19.92;8.98;;;13.10;99.90;;;;;;5066832;28;20017;-78
2021/10/17 09:30:26;;;;;;;23.17;9.60;;;13.10;99.90;;;;;;5073513;28;20028;-77
2021/10/17 09:32:51;;;;;;;13.98;9.13;;;13.10;99.90;;;;;;5070873;28;20029;-77
2021/10/17 09:35:17;;;;;;;23.42;9.32;;;13.10;99.90;;;;;;5070984;28;20543;-75
2021/10/17 09:37:44;;;;;;;16.50;8.57;;;13.10;99.90;;;;;;5073400;28;20099;-77
2021/10/17 09:40:21;;;;;;;14.45;9.45;;;13.20;99.90;;;;;;5074613;28;20021;-79
2021/10/17 09:43:27;;;;;;;13.73;8.63;;;13.20;99.90;;;;;;5073273;28;20040;-76
2021/10/17 09:46:08;;;;;;;18.65;9.10;;;13.30;99.90;;;;;;5073818;28;20518;-76
2021/10/17 09:48:34;;;;;;;16.65;10.30;;;13.30;99.90;;;;;;5066755;28;20028;-77
2021/10/17 09:51:08;;;;;;;12.52;8.98;;;13.30;99.90;;;;;;5073868;28;20032;-76
2021/10/17 09:53:40;;;;;;;17.33;9.50;;;13.30;99.90;;;;;;5074374;28;20117;-79
2021/10/17 09:56:06;;;;;;;16.35;8.80;;;13.30;99.90;;;;;;5073055;28;20036;-77
2021/10/17 09:58:32;;;;;;;15.18;9.25;;;13.20;99.90;;;;;;5074039;28;20052;-78
2021/10/17 10:00:59;;;;;;;18.23;9.93;;;13.30;99.90;;;;;;5072831;28;20059;-76
2021/10/17 10:03:26;;;;;;;23.38;10.48;;;13.40;99.90;;;;;;5071247;28;20036;-79
2021/10/17 10:05:53;;;;;;;15.57;9.30;;;13.40;99.90;;;;;;5072100;28;20047;-77
2021/10/17 10:08:21;;;;;;;20.63;8.63;;;13.50;99.90;;;;;;5073189;28;20032;-79
2021/10/17 10:10:49;;;;;;;16.17;8.75;;;13.60;99.90;;;;;;5057864;28;20380;-76
2021/10/17 10:13:17;;;;;;;11.27;9.02;;;13.70;99.90;;;;;;5072718;28;20094;-76
2021/10/17 10:15:44;;;;;;;12.02;8.88;;;13.80;99.90;;;;;;5055983;28;20024;-77
2021/10/17 10:18:12;;;;;;;13.32;8.95;;;13.90;99.90;;;;;;5063908;28;20052;-78
2021/10/17 10:20:39;;;;;;;14.02;8.85;;;14.00;99.90;;;;;;5073925;28;20032;-77
2021/10/17 10:23:10;;;;;;;15.23;8.27;;;14.10;99.90;;;;;;5073272;28;20033;-78
2021/10/17 10:25:38;;;;;;;13.00;8.52;;;14.20;99.90;;;;;;5073733;28;20037;-77
2021/10/17 10:28:06;;;;;;;11.25;9.15;;;14.20;99.90;;;;;;5073319;28;20579;-76
2021/10/17 10:30:33;;;;;;;11.43;8.02;;;14.20;99.90;;;;;;5059173;28;20055;-77
2021/10/17 10:33:18;;;;;;;19.50;9.25;;;14.30;99.90;;;;;;5067005;28;20033;-76
2021/10/17 10:36:03;;;;;;;11.38;8.13;;;14.40;99.90;;;;;;5067434;28;20034;-76
2021/10/17 10:38:50;;;;;;;13.05;7.85;;;14.50;99.90;;;;;;5072913;28;20437;-76
2021/10/17 10:41:18;;;;;;;12.35;7.65;;;14.70;99.90;;;;;;5073074;28;20025;-76
2021/10/17 10:43:44;;;;;;;8.85;7.55;;;14.80;99.90;;;;;;5073678;28;20045;-76
2021/10/17 10:46:10;;;;;;;12.13;7.93;;;14.90;99.90;;;;;;5074190;28;20017;-77
2021/10/17 10:48:48;;;;;;;8.95;7.63;;;14.90;99.90;;;;;;5065382;28;20025;-76
2021/10/17 10:51:48;;;;;;;12.10;7.78;;;15.00;99.90;;;;;;5069204;28;20424;-77
2021/10/17 10:54:28;;;;;;;10.10;7.57;;;15.10;99.90;;;;;;5073472;28;20467;-77
2021/10/17 10:56:56;;;;;;;13.60;8.35;;;15.20;99.90;;;;;;5069562;28;20028;-75
2021/10/17 11:00:05;;;;;;;9.93;7.93;;;15.20;99.90;;;;;;5072700;28;20036;-76
2021/10/17 11:02:31;;;;;;;15.50;7.30;;;15.30;99.90;;;;;;5068967;28;20036;-76
2021/10/17 11:05:07;;;;;;;10.50;7.38;;;15.30;99.90;;;;;;5066657;28;20043;-76
2021/10/17 11:07:40;;;;;;;13.60;8.23;;;15.30;99.90;;;;;;5072832;28;20024;-77
2021/10/17 11:10:27;;;;;;;14.65;7.22;;;15.20;99.90;;;;;;5072683;28;20032;-77
2021/10/17 11:12:58;;;;;;;12.77;8.27;;;15.20;99.90;;;;;;5060902;28;20145;-76
2021/10/17 11:15:30;;;;;;;9.95;7.38;;;15.20;99.90;;;;;;5075698;28;20083;-77
2021/10/17 11:17:57;;;;;;;12.88;7.05;;;15.20;99.90;;;;;;5076927;28;20064;-77
2021/10/17 11:20:25;;;;;;;16.42;8.63;;;15.30;99.90;;;;;;5060596;28;20025;-76
2021/10/17 11:22:54;;;;;;;15.68;8.27;;;15.30;99.90;;;;;;5052709;28;20033;-76
2021/10/17 11:25:20;;;;;;;10.18;7.40;;;15.30;99.90;;;;;;5065295;28;20048;-76
2021/10/17 11:27:47;;;;;;;11.60;7.18;;;15.30;99.90;;;;;;5072193;28;20020;-78
2021/10/17 11:30:19;;;;;;;10.40;8.70;;;15.30;99.90;;;;;;5072575;28;20499;-77
2021/10/17 11:32:44;;;;;;;8.00;6.72;;;15.40;99.90;;;;;;5068632;28;20091;-78
2021/10/17 11:35:10;;;;;;;10.88;7.07;;;15.40;99.90;;;;;;5062268;28;20103;-75
2021/10/17 11:37:36;;;;;;;12.40;7.55;;;15.40;99.90;;;;;;5058691;28;20021;-76
2021/10/17 11:40:06;;;;;;;11.10;7.30;;;15.50;99.90;;;;;;5073016;28;20032;-77
2021/10/17 11:42:46;;;;;;;12.00;7.57;;;15.40;99.90;;;;;;5071825;28;20101;-77
2021/10/17 11:45:16;;;;;;;7.95;6.80;;;15.40;99.90;;;;;;5073192;28;20119;-76
2021/10/17 11:47:47;;;;;;;12.20;7.07;;;15.40;99.90;;;;;;5071952;28;20072;-76
2021/10/17 11:50:19;;;;;;;11.10;7.03;;;15.40;99.90;;;;;;5072643;28;20026;-78
2021/10/17 11:52:50;;;;;;;10.55;7.65;;;15.40;99.90;;;;;;5072190;28;20503;-77
2021/10/17 11:55:26;;;;;;;8.50;6.63;;;15.40;99.90;;;;;;5072341;28;20020;-76
2021/10/17 11:57:52;;;;;;;10.20;6.15;;;15.40;99.90;;;;;;5071979;28;20379;-76
2021/10/17 12:00:25;;;;;;;11.93;6.35;;;15.40;99.90;;;;;;5073385;28;20115;-77
2021/10/17 12:02:51;;;;;;;9.93;6.50;;;15.40;99.90;;;;;;5072056;28;20040;-77
2021/10/17 12:05:18;;;;;;;11.32;6.32;;;15.40;99.90;;;;;;5072338;28;20074;-76
2021/10/17 12:07:44;;;;;;;10.23;6.47;;;15.40;99.90;;;;;;5072188;28;20062;-79
2021/10/17 12:10:11;;;;;;;8.52;5.68;;;15.40;99.90;;;;;;5071933;28;20028;-78
2021/10/17 12:12:41;;;;;;;10.48;6.43;;;15.40;99.90;;;;;;5072589;28;20029;-78
2021/10/17 12:15:10;;;;;;;13.70;6.13;;;15.50;99.90;;;;;;5072369;28;20029;-77
2021/10/17 12:17:36;;;;;;;8.27;5.47;;;15.50;99.90;;;;;;5072040;28;20024;-77
2021/10/17 12:20:11;;;;;;;7.65;5.45;;;15.40;99.90;;;;;;5072587;28;20533;-76
2021/10/17 12:22:44;;;;;;;8.82;5.38;;;15.40;99.90;;;;;;5058407;28;20016;-76
2021/10/17 12:25:11;;;;;;;10.57;5.82;;;15.50;99.90;;;;;;5072516;28;20515;-78
2021/10/17 12:27:42;;;;;;;8.07;5.60;;;15.60;99.90;;;;;;5072496;28;20025;-77
2021/10/17 12:30:09;;;;;;;;;;;15.70;99.90;;;;;;5072663;28;20031;-78
2021/10/17 12:32:55;;;;;;;9.27;4.90;;;15.80;99.90;;;;;;5072880;28;19909;-76
2021/10/17 12:35:24;;;;;;;7.32;4.97;;;15.80;99.90;;;;;;5072333;28;20121;-76
2021/10/17 12:37:51;;;;;;;5.75;4.97;;;15.90;99.90;;;;;;5060885;28;20013;-77
2021/10/17 12:40:16;;;;;;;8.32;4.70;;;16.00;99.90;;;;;;5076423;28;20029;-78